Time;durP1;ratioP1;P1;durP2;ratioP2;P2;SDS_P1;SDS_P2;PMS_P1;PMS_P2;Temp;Humidity;BMP_temperature;BMP_pressure;BME280_temperature;BME280_humidity;BME280_pressure;Samples;Min_cycle;Max_cycle;Signal;HPM_P1;HPM_P2
2023/12/02 00:02:40;;;;;;;;;0.00;0.00;;;;;18.51;52.13;100878.63;146623;569;47032;-67
2023/12/02 00:05:34;;;;;;;;;0.00;0.00;;;;;18.54;52.06;100876.06;146632;566;46010;-66
2023/12/02 00:08:39;;;;;;;;;1.00;0.00;;;;;18.64;51.62;100870.13;146625;600;46921;-68
2023/12/02 00:11:34;;;;;;;;;0.00;0.00;;;;;17.34;51.31;100625.94;146634;577;46010;-65
2023/12/02 00:14:26;;;;;;;;;1.00;0.00;;;;;18.88;50.96;100867.16;146621;563;47920;-66
2023/12/02 00:17:19;;;;;;;;;0.00;0.00;;;;;18.97;50.60;100869.06;146633;591;46011;-66
2023/12/02 00:20:17;;;;;;;;;0.00;0.00;;;;;19.06;50.58;100874.47;146622;590;46014;-66
2023/12/02 00:23:12;;;;;;;;;0.00;0.00;;;;;19.09;50.52;100864.03;146631;601;46020;-66
2023/12/02 00:26:10;;;;;;;;;0.00;0.00;;;;;19.19;50.37;100868.63;146625;591;46921;-66
2023/12/02 00:29:02;;;;;;;;;0.00;0.00;;;;;19.20;49.83;100865.13;146630;570;46020;-65
2023/12/02 00:31:58;;;;;;;;;1.00;0.00;;;;;19.23;50.31;100865.19;146627;582;46921;-66
2023/12/02 00:34:54;;;;;;;;;0.00;0.00;;;;;19.18;50.40;100844.91;146628;638;47010;-67
2023/12/02 00:37:58;;;;;;;;;0.33;0.00;;;;;19.29;50.40;100862.66;146626;627;46016;-66
2023/12/02 00:40:55;;;;;;;;;0.00;0.00;;;;;19.28;50.20;100863.53;146631;590;46010;-66
2023/12/02 00:43:47;;;;;;;;;0.33;0.00;;;;;19.28;50.02;100857.37;146628;583;46044;-66
2023/12/02 00:46:41;;;;;;;;;0.00;0.00;;;;;19.28;50.18;100860.91;146628;566;47010;-66
2023/12/02 00:49:36;;;;;;;;;0.00;0.00;;;;;19.30;50.31;100858.28;146629;688;46016;-66
2023/12/02 00:52:31;;;;;;;;;0.00;0.00;;;;;19.29;50.72;100870.56;146629;614;46020;-66
2023/12/02 00:55:26;;;;;;;;;1.00;1.00;;;;;19.28;50.12;100853.00;146625;564;47016;-66
2023/12/02 00:58:18;;;;;;;;;0.67;0.67;;;;;19.25;50.73;100842.44;146629;604;46020;-66
2023/12/02 01:01:17;;;;;;;;;1.00;0.00;;;;;19.22;50.89;100833.59;146627;637;46015;-65
2023/12/02 01:04:11;;;;;;;;;0.00;0.00;;;;;19.19;51.27;100841.41;146629;610;46020;-64
2023/12/02 01:07:12;;;;;;;;;0.33;0.00;;;;;19.19;50.81;100836.16;146628;605;47012;-65
2023/12/02 01:10:16;;;;;;;;;0.00;0.00;;;;;19.20;50.79;100830.06;146629;604;47011;-64
2023/12/02 01:13:12;;;;;;;;;0.00;0.00;;;;;19.23;50.57;100823.13;146624;588;46028;-64
2023/12/02 01:16:16;;;;;;;;;0.00;0.00;;;;;19.27;50.91;100824.94;146628;570;46011;-64
2023/12/02 01:19:28;;;;;;;;;0.00;0.00;;;;;19.28;51.03;100845.12;146625;569;47012;-65
2023/12/02 01:22:27;;;;;;;;;1.00;1.00;;;;;19.26;51.01;100848.59;146631;569;46010;-65
2023/12/02 01:25:24;;;;;;;;;0.33;0.33;;;;;19.24;51.21;100856.44;146629;667;46042;-64
2023/12/02 01:28:30;;;;;;;;;0.00;0.00;;;;;19.21;51.21;100855.50;146620;594;47028;-64
2023/12/02 01:31:31;;;;;;;;;0.67;0.67;;;;;19.15;51.15;100838.75;146622;639;46032;-65
2023/12/02 01:34:35;;;;;;;;;2.00;2.00;;;;;19.12;51.33;100827.28;146624;569;48010;-65
2023/12/02 01:37:33;;;;;;;;;3.67;1.00;;;;;19.08;51.37;100826.34;146627;564;46016;-64
2023/12/02 01:40:28;;;;;;;;;1.33;0.67;;;;;19.05;51.50;100823.66;146626;581;47020;-65
2023/12/02 01:43:37;;;;;;;;;0.67;0.00;;;;;19.03;51.82;100821.88;146628;641;46014;-64
2023/12/02 01:46:35;;;;;;;;;3.00;1.00;;;;;18.96;51.94;100820.00;146629;583;47010;-65
2023/12/02 01:49:36;;;;;;;;;3.33;2.00;;;;;18.91;52.01;100818.16;146625;642;46012;-64
2023/12/02 01:52:33;;;;;;;;;1.00;1.00;;;;;18.84;52.32;100811.00;146629;622;46010;-65
2023/12/02 01:55:34;;;;;;;;;2.00;2.00;;;;;18.77;52.64;100808.25;146626;659;46921;-65
2023/12/02 01:58:34;;;;;;;;;2.00;2.00;;;;;18.64;52.85;100788.72;146627;574;46020;-64
2023/12/02 02:01:29;;;;;;;;;1.67;1.67;;;;;18.59;53.05;100785.09;146627;597;46016;-64
2023/12/02 02:04:27;;;;;;;;;1.00;1.00;;;;;18.53;53.07;100785.84;146625;563;46010;-64
2023/12/02 02:07:22;;;;;;;;;2.00;2.00;;;;;18.49;53.14;100784.03;146624;600;47016;-64
2023/12/02 02:10:17;;;;;;;;;3.33;2.00;;;;;18.45;53.11;100777.84;146631;609;46021;-63
2023/12/02 02:13:25;;;;;;;;;2.00;2.00;;;;;18.41;53.87;100778.66;146628;593;46012;-64
2023/12/02 02:16:17;;;;;;;;;3.67;3.00;;;;;18.34;54.13;100779.34;146633;577;46011;-64
2023/12/02 02:19:26;;;;;;;;;;;;;;;;;;;;;
2023/12/02 02:22:33;;;;;;;;;3.25;3.00;;;;;18.24;54.91;100777.41;146629;632;46010;-65
2023/12/02 02:25:43;;;;;;;;;2.33;2.33;;;;;18.18;55.03;100774.66;146628;583;46016;-66
2023/12/02 02:28:37;;;;;;;;;1.67;1.33;;;;;18.07;55.85;100778.78;146629;614;46010;-66
2023/12/02 02:31:30;;;;;;;;;4.33;2.33;;;;;18.03;55.81;100785.69;146630;585;45017;-64
2023/12/02 02:34:38;;;;;;;;;5.00;5.00;;;;;17.96;55.80;100782.06;146630;600;46014;-64
2023/12/02 02:37:38;;;;;;;;;3.33;3.00;;;;;17.87;56.50;100776.59;146626;565;46017;-65
2023/12/02 02:40:31;;;;;;;;;5.67;3.00;;;;;17.79;56.93;100770.31;146627;578;46020;-64
2023/12/02 02:43:24;;;;;;;;;3.33;3.00;;;;;17.71;56.66;100759.59;146627;628;46016;-63
2023/12/02 02:46:18;;;;;;;;;4.00;2.67;;;;;17.64;56.94;100764.69;146632;570;46014;-64
2023/12/02 02:49:20;;;;;;;;;5.00;2.67;;;;;17.57;56.72;100757.50;146625;571;46016;-62
2023/12/02 02:52:24;;;;;;;;;4.00;2.33;;;;;17.49;57.20;100741.63;146631;573;47010;-63
2023/12/02 02:55:20;;;;;;;;;2.67;2.67;;;;;17.38;57.86;100733.47;146628;577;46016;-62
2023/12/02 02:58:16;;;;;;;;;5.00;3.00;;;;;17.29;58.67;100742.03;146630;605;47010;-64
2023/12/02 03:01:14;;;;;;;;;4.33;4.33;;;;;17.25;58.50;100748.03;146626;625;46016;-63
2023/12/02 03:04:31;;;;;;;;;4.00;3.00;;;;;17.18;57.47;100730.38;146628;685;46010;-63
2023/12/02 03:07:28;;;;;;;;;7.00;6.00;;;;;17.13;58.78;100742.47;146629;656;46014;-63
2023/12/02 03:10:34;;;;;;;;;5.50;5.50;;;;;17.09;58.68;100761.59;146632;693;46020;-64
2023/12/02 03:13:30;;;;;;;;;8.00;4.00;;;;;17.12;59.46;100734.59;146628;632;46014;-64
2023/12/02 03:16:25;;;;;;;;;4.00;2.67;;;;;17.15;58.81;100742.53;146630;601;47010;-64
2023/12/02 03:19:18;;;;;;;;;3.00;2.00;;;;;17.16;58.08;100732.06;146626;576;46012;-64
2023/12/02 03:22:10;;;;;;;;;3.67;3.00;;;;;17.18;58.57;100753.09;146632;572;46010;-64
2023/12/02 03:25:05;;;;;;;;;3.50;3.00;;;;;17.14;59.25;100754.75;146624;597;46016;-65
2023/12/02 03:28:07;;;;;;;;;5.00;5.00;;;;;17.12;58.89;100742.47;146624;603;47020;-64
2023/12/02 03:31:10;;;;;;;;;3.00;3.00;;;;;17.08;58.33;100750.25;146623;724;46017;-64
2023/12/02 03:34:03;;;;;;;;;3.33;3.33;;;;;17.02;59.59;100755.31;146632;586;46010;-64
2023/12/02 03:36:58;;;;;;;;;2.50;2.50;;;;;16.96;60.42;100757.78;146624;581;46919;-63
2023/12/02 03:39:56;;;;;;;;;3.33;3.00;;;;;16.85;59.69;100747.03;146630;573;46010;-64
2023/12/02 03:42:52;;;;;;;;;1.00;1.00;;;;;16.82;59.64;100740.81;146626;586;46016;-64
2023/12/02 03:45:51;;;;;;;;;3.00;2.00;;;;;16.74;59.29;100734.47;146627;602;46025;-64
2023/12/02 03:48:47;;;;;;;;;2.67;0.67;;;;;16.69;59.41;100720.38;146626;605;46016;-65
2023/12/02 03:51:51;;;;;;;;;1.00;0.00;;;;;16.71;58.31;100729.16;146630;611;46020;-64
2023/12/02 03:54:43;;;;;;;;;0.00;0.00;;;;;16.79;56.78;100719.78;146628;564;46016;-65
2023/12/02 03:57:49;;;;;;;;;0.00;0.00;;;;;12.99;54.31;100019.84;146627;623;46020;-63
2023/12/02 04:00:45;;;;;;;;;0.00;0.00;;;;;17.29;51.78;100707.09;146629;565;46014;-64
2023/12/02 04:03:37;;;;;;;;;0.00;0.00;;;;;17.67;51.91;100714.94;146630;596;46010;-64
2023/12/02 04:06:37;;;;;;;;;3.67;3.00;;;;;17.97;53.53;100718.25;146625;582;46016;-62
2023/12/02 04:09:34;;;;;;;;;3.00;2.00;;;;;18.05;54.81;100734.16;146630;581;46012;-62
2023/12/02 04:12:38;;;;;;;;;4.00;3.33;;;;;17.95;55.95;100735.69;146625;577;45918;-64
2023/12/02 04:15:31;;;;;;;;;4.00;3.00;;;;;17.81;55.79;100731.87;146627;581;47021;-64
2023/12/02 04:18:29;;;;;;;;;5.33;5.00;;;;;17.71;56.93;100737.75;146628;581;47012;-63
2023/12/02 04:21:33;;;;;;;;;4.50;4.25;;;;;17.58;57.37;100730.47;146628;611;46010;-63
2023/12/02 04:24:25;;;;;;;;;7.33;5.00;;;;;17.45;58.84;100722.31;146623;573;46012;-63
2023/12/02 04:27:20;;;;;;;;;5.75;4.75;;;;;17.33;59.40;100724.63;146631;574;47010;-63
2023/12/02 04:30:16;;;;;;;;;4.75;4.75;;;;;17.22;59.83;100720.88;146628;638;46016;-64
2023/12/02 04:33:13;;;;;;;;;4.67;4.00;;;;;17.04;59.76;100703.88;146629;645;46010;-62
2023/12/02 04:36:20;;;;;;;;;1.33;1.33;;;;;16.96;57.83;100700.16;146628;584;46012;-62
2023/12/02 04:39:17;;;;;;;;;5.33;4.00;;;;;16.98;58.01;100708.06;146630;637;47011;-63
2023/12/02 04:42:21;;;;;;;;;6.00;5.67;;;;;17.04;61.14;100701.25;146625;616;46016;-63
2023/12/02 04:45:16;;;;;;;;;7.50;5.75;;;;;17.00;61.17;100691.53;146630;583;46010;-63
2023/12/02 04:48:08;;;;;;;;;5.00;5.00;;;;;16.99;61.35;100688.88;146625;590;47014;-63
2023/12/02 04:51:03;;;;;;;;;4.00;3.00;;;;;16.99;60.21;100684.53;146628;574;46020;-64
2023/12/02 04:53:57;;;;;;;;;3.67;3.00;;;;;17.03;57.82;100685.47;146621;629;46013;-63
2023/12/02 04:56:52;;;;;;;;;8.00;7.00;;;;;17.11;58.59;100676.09;146628;668;46010;-63
2023/12/02 04:59:57;;;;;;;;;9.00;7.75;;;;;17.14;59.70;100686.62;146620;627;47012;-63
2023/12/02 05:02:52;;;;;;;;;10.75;7.00;;;;;17.14;59.82;100670.03;146629;699;46020;-64
2023/12/02 05:05:50;;;;;;;;;7.50;6.00;;;;;17.11;59.81;100678.69;146623;640;46012;-63
2023/12/02 05:08:46;;;;;;;;;10.25;7.25;;;;;17.05;60.72;100668.94;146627;623;46014;-63
2023/12/02 05:11:38;;;;;;;;;10.75;8.50;;;;;16.96;61.00;100676.59;146621;594;46918;-64
2023/12/02 05:14:32;;;;;;;;;7.50;7.50;;;;;16.90;60.82;100668.56;146630;657;46014;-64
2023/12/02 05:17:29;;;;;;;;;11.25;9.75;;;;;16.85;60.99;100676.34;146618;564;45038;-64
2023/12/02 05:20:27;;;;;;;;;9.25;9.00;;;;;16.78;61.24;100677.00;146625;691;46010;-64
2023/12/02 05:23:22;;;;;;;;;15.75;14.00;;;;;16.69;62.63;100671.50;146620;683;46013;-63
2023/12/02 05:26:17;;;;;;;;;11.75;10.25;;;;;16.59;62.16;100644.22;146621;572;47010;-65
2023/12/02 05:29:25;;;;;;;;;10.00;8.00;;;;;16.51;61.88;100651.00;146620;622;46013;-64
2023/12/02 05:32:21;;;;;;;;;13.00;12.50;;;;;16.47;63.37;100656.09;146624;566;46020;-64
2023/12/02 05:35:16;;;;;;;;;12.00;10.50;;;;;16.42;63.10;100655.06;146613;660;47016;-64
2023/12/02 05:38:14;;;;;;;;;7.00;6.75;;;;;16.40;62.39;100649.81;146622;675;46020;-65
2023/12/02 05:41:09;;;;;;;;;6.25;6.00;;;;;16.43;64.84;100649.91;146626;563;47012;-64
2023/12/02 05:44:05;;;;;;;;;7.00;3.67;;;;;16.44;66.87;100651.66;146623;616;47021;-61
2023/12/02 05:47:03;;;;;;;;;6.33;5.00;;;;;16.50;66.71;100653.56;146625;563;46016;-62
2023/12/02 05:49:55;;;;;;;;;5.50;3.25;;;;;16.57;66.50;100665.94;146627;563;45020;-63
2023/12/02 05:52:50;;;;;;;;;3.25;3.00;;;;;16.60;66.30;100666.94;146626;588;47012;-65
2023/12/02 05:55:46;;;;;;;;;4.00;4.00;;;;;16.72;65.10;100658.50;146625;650;48010;-66
2023/12/02 05:58:56;;;;;;;;;3.33;2.33;;;;;16.83;63.48;100669.28;146627;625;46016;-64
2023/12/02 06:01:49;;;;;;;;;7.75;6.00;;;;;16.94;64.32;100670.41;146628;646;46010;-65
2023/12/02 06:04:48;;;;;;;;;7.33;4.33;;;;;17.04;63.00;100684.63;146625;565;46016;-63
2023/12/02 06:07:46;;;;;;;;;3.67;3.67;;;;;17.09;63.00;100675.16;146629;575;46021;-65
2023/12/02 06:10:41;;;;;;;;;3.00;3.00;;;;;17.15;63.12;100695.38;146629;626;46012;-64
2023/12/02 06:13:50;;;;;;;;;6.00;4.00;;;;;17.19;61.49;100685.00;146631;670;46020;-64
2023/12/02 06:16:44;;;;;;;;;5.75;5.00;;;;;17.25;63.91;100679.00;146623;637;46016;-63
2023/12/02 06:19:36;;;;;;;;;4.50;4.50;;;;;17.22;63.01;100671.97;146621;663;47020;-65
2023/12/02 06:22:30;;;;;;;;;6.75;6.00;;;;;17.21;63.46;100675.44;146623;667;46919;-63
2023/12/02 06:25:22;;;;;;;;;5.75;4.75;;;;;17.20;63.72;100675.41;146629;632;47020;-64
2023/12/02 06:28:22;;;;;;;;;5.25;5.25;;;;;17.17;62.96;100691.06;146629;669;46014;-64
2023/12/02 06:31:17;;;;;;;;;4.33;4.00;;;;;17.19;62.87;100682.38;146629;579;46020;-64
2023/12/02 06:34:10;;;;;;;;;8.25;7.00;;;;;17.26;63.19;100699.16;146624;641;46016;-64
2023/12/02 06:37:08;;;;;;;;;7.25;5.25;;;;;17.38;63.85;100709.00;146628;565;46021;-63
2023/12/02 06:40:03;;;;;;;;;8.50;7.50;;;;;17.47;64.16;100701.34;146630;654;46012;-64
2023/12/02 06:42:58;;;;;;;;;8.00;5.50;;;;;17.53;63.54;100712.88;146629;664;46030;-63
2023/12/02 06:45:56;;;;;;;;;10.25;9.25;;;;;17.47;62.89;100704.84;146618;721;47012;-63
2023/12/02 06:48:48;;;;;;;;;12.25;10.75;;;;;17.57;63.44;100711.22;146621;626;46020;-63
2023/12/02 06:51:52;;;;;;;;;16.00;12.25;;;;;17.59;62.37;100714.75;146618;572;46017;-63
2023/12/02 06:54:47;;;;;;;;;14.50;12.00;;;;;17.60;62.67;100706.06;146623;607;47010;-64
2023/12/02 06:57:46;;;;;;;;;11.75;10.25;;;;;17.59;62.41;100704.25;146620;613;47016;-63
2023/12/02 07:00:44;;;;;;;;;27.00;24.00;;;;;17.58;62.30;100712.97;146621;608;46020;-64
2023/12/02 07:03:49;;;;;;;;;19.00;18.25;;;;;17.55;62.11;100720.78;146617;659;46016;-64
2023/12/02 07:06:47;;;;;;;;;22.00;21.00;;;;;17.53;63.18;100705.00;146622;641;46010;-64
2023/12/02 07:09:41;;;;;;;;;17.75;15.75;;;;;17.49;63.12;100718.03;146616;569;46012;-64
2023/12/02 07:12:34;;;;;;;;;27.75;23.00;;;;;17.44;63.97;100712.66;146618;571;46021;-63
2023/12/02 07:15:34;;;;;;;;;23.75;21.75;;;;;17.37;64.29;100721.22;146618;594;46016;-63
2023/12/02 07:18:31;;;;;;;;;29.75;26.50;;;;;17.33;64.81;100737.75;146618;597;47020;-64
2023/12/02 07:21:25;;;;;;;;;33.75;29.75;;;;;17.25;65.79;100718.31;146617;602;46016;-63
2023/12/02 07:24:21;;;;;;;;;28.00;25.25;;;;;17.16;65.60;100731.19;146622;581;46010;-63
2023/12/02 07:27:16;;;;;;;;;26.75;24.75;;;;;17.10;66.21;100718.81;146615;592;47017;-63
2023/12/02 07:30:18;;;;;;;;;29.75;21.75;;;;;17.03;64.67;100715.16;146621;563;46020;-65
2023/12/02 07:33:18;;;;;;;;;34.75;27.75;;;;;17.03;65.55;100733.50;146618;579;46016;-64
2023/12/02 07:36:23;;;;;;;;;27.75;27.50;;;;;17.04;65.97;100732.69;146621;678;46030;-63
2023/12/02 07:39:18;;;;;;;;;33.00;27.75;;;;;16.97;68.21;100735.97;146615;614;46920;-64
2023/12/02 07:42:11;;;;;;;;;39.25;34.00;;;;;16.92;67.12;100737.59;146622;573;46011;-64
2023/12/02 07:45:12;;;;;;;;;36.00;31.75;;;;;16.89;66.66;100737.53;146616;725;46016;-64
2023/12/02 07:48:10;;;;;;;;;35.50;31.25;;;;;16.90;67.25;100735.78;146619;570;46020;-63
2023/12/02 07:51:11;;;;;;;;;30.00;28.00;;;;;16.93;66.17;100743.72;146613;590;47012;-64
2023/12/02 07:54:10;;;;;;;;;28.50;22.25;;;;;16.98;64.17;100724.66;146620;563;46020;-64
2023/12/02 07:57:05;;;;;;;;;18.00;18.00;;;;;17.05;63.73;100734.44;146619;629;46013;-64
2023/12/02 08:00:03;;;;;;;;;13.00;11.75;;;;;17.17;60.32;100736.50;146620;595;46020;-64
2023/12/02 08:03:02;;;;;;;;;26.75;23.50;;;;;17.33;61.46;100732.50;146616;601;46016;-63
2023/12/02 08:06:03;;;;;;;;;18.75;17.50;;;;;17.41;61.47;100725.69;146617;585;46031;-63
2023/12/02 08:09:04;;;;;;;;;15.75;14.50;;;;;17.53;61.30;100748.69;146613;625;47016;-65
2023/12/02 08:12:02;;;;;;;;;8.67;6.67;;;;;17.61;57.84;100751.50;146617;587;46015;-64
2023/12/02 08:14:59;;;;;;;;;2.33;1.67;;;;;17.78;53.99;100755.41;146627;626;46016;-63
2023/12/02 08:18:10;;;;;;;;;4.75;4.75;;;;;14.62;53.59;100172.16;146629;635;45020;-63
2023/12/02 08:21:23;;;;;;;;;18.50;14.75;;;;;14.41;54.96;100114.19;146619;606;45017;-63
2023/12/02 08:24:20;;;;;;;;;15.25;12.25;;;;;18.26;55.23;100772.19;146612;706;47010;-63
2023/12/02 08:27:13;;;;;;;;;38.00;26.00;;;;;18.30;55.50;100782.78;146616;644;46032;-63
2023/12/02 08:30:17;;;;;;;;;28.50;25.00;;;;;14.56;55.89;100122.44;146615;596;46020;-63
2023/12/02 08:33:15;;;;;;;;;23.00;19.50;;;;;18.40;53.48;100779.47;146620;618;47012;-63
2023/12/02 08:36:11;;;;;;;;;19.25;18.00;;;;;18.48;54.21;100777.03;146620;604;47014;-64
2023/12/02 08:39:14;;;;;;;;;14.00;12.00;;;;;18.57;53.24;100771.06;146619;625;46016;-63
2023/12/02 08:42:07;;;;;;;;;11.00;11.00;;;;;18.65;52.74;100777.34;146623;570;46011;-64
2023/12/02 08:45:09;;;;;;;;;10.00;9.00;;;;;18.71;51.02;100780.09;146618;690;46016;-63
2023/12/02 08:48:10;;;;;;;;;8.25;6.25;;;;;18.81;49.14;100784.69;146629;617;46020;-64
2023/12/02 08:51:08;;;;;;;;;9.50;7.75;;;;;18.95;49.52;100768.31;146621;586;46921;-65
2023/12/02 08:54:42;;;;;;;;;;;;;;;;;;;;;
2023/12/02 08:57:37;;;;;;;;;8.00;7.00;;;;;19.16;49.80;100766.06;146622;654;46017;-64
2023/12/02 09:00:29;;;;;;;;;7.67;2.67;;;;;19.20;46.92;100767.88;146632;641;46020;-64
2023/12/02 09:03:30;;;;;;;;;4.00;3.00;;;;;19.25;48.76;100763.59;146626;592;47012;-64
2023/12/02 09:06:29;;;;;;;;;4.33;3.00;;;;;19.32;48.32;100762.81;146628;578;46020;-64
2023/12/02 09:09:26;;;;;;;;;5.00;3.00;;;;;19.42;46.44;100755.06;146625;571;46920;-64
2023/12/02 09:12:25;;;;;;;;;6.67;2.67;;;;;19.48;46.77;100752.53;146631;621;47011;-63
2023/12/02 09:15:49;;;;;;;;;5.00;2.33;;;;;15.93;49.38;100116.88;146628;599;46012;-65
2023/12/02 09:18:42;;;;;;;;;2.00;2.00;;;;;19.62;47.02;100749.25;146630;675;46011;-64
2023/12/02 09:21:49;;;;;;;;;4.67;3.00;;;;;19.66;48.61;100747.59;146629;623;46016;-64
2023/12/02 09:24:46;;;;;;;;;4.00;2.00;;;;;19.66;45.06;100738.78;146632;604;46010;-64
2023/12/02 09:28:26;;;;;;;;;3.33;3.00;;;;;16.07;45.84;100103.16;146627;564;46017;-64
2023/12/02 09:31:20;;;;;;;;;4.00;2.33;;;;;19.71;46.93;100724.84;146632;569;46010;-64
2023/12/02 09:35:06;;;;;;;;;6.00;5.25;;;;;15.75;48.24;100037.19;146625;631;46017;-64
2023/12/02 09:38:29;;;;;;;;;4.33;3.67;;;;;19.70;45.72;100719.56;146627;665;46020;-64
2023/12/02 09:41:54;;;;;;;;;9.33;4.33;;;;;19.66;47.78;100715.09;146627;581;46017;-64
2023/12/02 09:45:16;;;;;;;;;6.67;6.00;;;;;15.84;48.62;100072.25;146630;569;47010;-64
2023/12/02 09:48:59;;;;;;;;;5.00;3.33;;;;;17.47;49.64;100415.63;146627;666;47013;-65
2023/12/02 09:52:27;;;;;;;;;7.33;4.67;;;;;19.49;48.91;100714.84;146630;660;47034;-64
2023/12/02 09:55:57;;;;;;;;;6.00;3.00;;;;;15.68;49.53;100055.38;146628;614;46015;-64
2023/12/02 09:58:50;;;;;;;;;4.00;3.67;;;;;19.51;47.37;100719.28;146628;631;46020;-64
2023/12/02 10:02:02;;;;;;;;;7.75;5.00;;;;;19.53;48.85;100711.37;146625;577;46012;-65
2023/12/02 10:05:34;;;;;;;;;5.00;4.00;;;;;15.84;48.98;100060.91;146631;604;46014;-64
2023/12/02 10:08:42;;;;;;;;;4.00;4.00;;;;;19.53;48.88;100696.53;146623;596;46918;-64
2023/12/02 10:12:08;;;;;;;;;5.67;4.00;;;;;19.51;48.59;100689.47;146626;567;46020;-64
2023/12/02 10:15:23;;;;;;;;;7.67;7.00;;;;;19.53;48.44;100685.09;146625;650;46016;-64
2023/12/02 10:18:31;;;;;;;;;9.00;5.75;;;;;19.55;49.02;100679.00;146627;579;46021;-64
2023/12/02 10:21:27;;;;;;;;;9.25;6.25;;;;;19.58;48.19;100683.41;146622;575;46016;-64
2023/12/02 10:24:33;;;;;;;;;7.33;4.67;;;;;19.57;48.18;100666.75;146628;628;46020;-64
2023/12/02 10:27:55;;;;;;;;;4.00;2.00;;;;;15.84;48.65;100022.56;146625;577;47016;-64
2023/12/02 10:30:54;;;;;;;;;5.00;3.67;;;;;19.64;48.02;100669.47;146627;587;48010;-64
2023/12/02 10:34:15;;;;;;;;;3.67;3.00;;;;;19.66;48.94;100673.94;146625;591;46027;-64
2023/12/02 10:37:27;;;;;;;;;6.00;4.00;;;;;19.67;48.33;100662.53;146625;604;47012;-64
2023/12/02 10:40:27;;;;;;;;;3.00;3.00;;;;;19.66;45.53;100660.78;146627;566;46017;-65
2023/12/02 10:43:46;;;;;;;;;5.33;3.33;;;;;19.74;48.08;100650.34;146629;590;46021;-64
2023/12/02 10:46:46;;;;;;;;;3.67;3.00;;;;;19.80;48.08;100646.03;146629;601;46012;-64
2023/12/02 10:49:57;;;;;;;;;5.00;3.67;;;;;19.84;49.31;100644.31;146629;649;46020;-64
2023/12/02 10:53:09;;;;;;;;;6.33;4.67;;;;;19.83;48.84;100640.81;146626;569;46016;-65
2023/12/02 10:56:10;;;;;;;;;11.00;9.00;;;;;19.80;47.95;100640.78;146624;586;46021;-65
2023/12/02 10:59:08;;;;;;;;;5.00;4.67;;;;;19.80;47.56;100634.63;146623;600;47043;-65
2023/12/02 11:02:27;;;;;;;;;8.00;7.00;;;;;19.77;48.52;100630.22;146626;575;47015;-64
2023/12/02 11:05:45;;;;;;;;;15.50;13.00;;;;;19.76;48.45;100615.31;146618;564;46017;-64
2023/12/02 11:09:30;;;;;;;;;11.00;9.00;;;;;19.76;49.40;100606.53;146623;584;46020;-63
2023/12/02 11:13:00;;;;;;;;;17.00;14.50;;;;;17.66;49.38;100238.56;146619;640;47019;-65
2023/12/02 11:16:28;;;;;;;;;7.00;4.33;;;;;19.73;49.06;100594.22;146631;610;47008;-63
2023/12/02 11:19:58;;;;;;;;;6.50;6.50;;;;;16.10;47.59;99962.00;146625;685;46017;-65
2023/12/02 11:23:30;;;;;;;;;11.00;8.00;;;;;16.54;48.56;100033.37;146631;672;47014;-64
2023/12/02 11:27:02;;;;;;;;;8.00;5.67;;;;;15.89;48.85;99902.41;146625;617;46039;-65
2023/12/02 11:30:38;;;;;;;;;5.00;4.33;;;;;16.19;49.26;99956.94;146632;640;46020;-64
2023/12/02 11:34:11;;;;;;;;;14.00;9.50;;;;;19.77;48.90;100580.22;146620;565;46013;-64
2023/12/02 11:37:37;;;;;;;;;9.75;7.75;;;;;19.77;47.97;100577.59;146625;582;46010;-64
2023/12/02 11:41:07;;;;;;;;;8.33;6.00;;;;;15.96;48.74;99906.00;146625;579;46013;-66
2023/12/02 11:44:24;;;;;;;;;10.75;8.75;;;;;19.83;47.76;100568.91;146628;694;47010;-64
2023/12/02 11:47:48;;;;;;;;;13.00;11.75;;;;;19.85;47.42;100567.16;146619;581;47017;-65
2023/12/02 11:51:40;;;;;;;;;10.00;7.75;;;;;16.29;48.67;99940.53;146618;569;47020;-64
2023/12/02 11:55:39;;;;;;;;;7.00;6.00;;;;;16.74;49.03;100011.88;146627;632;46016;-66
2023/12/02 11:59:00;;;;;;;;;3.33;3.33;;;;;16.31;48.61;99930.09;146630;590;46010;-64
2023/12/02 12:02:20;;;;;;;;;6.00;4.33;;;;;19.95;49.32;100557.62;146627;630;46919;-64
2023/12/02 12:05:43;;;;;;;;;10.00;8.25;;;;;19.96;48.70;100554.12;146622;705;47010;-67
2023/12/02 12:09:01;;;;;;;;;4.00;3.33;;;;;19.93;47.80;100539.16;146623;569;47012;-64
2023/12/02 12:12:01;;;;;;;;;6.00;3.50;;;;;19.95;47.05;100533.94;146626;589;47014;-64
2023/12/02 12:15:00;;;;;;;;;8.00;7.00;;;;;19.94;48.90;100525.16;146618;578;46016;-64
2023/12/02 12:18:08;;;;;;;;;6.33;4.33;;;;;19.90;49.77;100511.94;146631;595;46021;-64
2023/12/02 12:21:16;;;;;;;;;7.67;4.00;;;;;19.88;48.93;100511.06;146625;649;46016;-64
2023/12/02 12:24:11;;;;;;;;;2.00;2.00;;;;;19.90;48.15;100509.31;146627;585;47010;-64
2023/12/02 12:27:04;;;;;;;;;3.00;3.00;;;;;19.94;48.66;100506.75;146627;626;46012;-65
2023/12/02 12:30:01;;;;;;;;;8.00;5.33;;;;;19.97;48.62;100503.22;146631;571;47010;-64
2023/12/02 12:33:01;;;;;;;;;7.67;6.00;;;;;20.00;48.10;100505.91;146625;615;46017;-65
2023/12/02 12:35:58;;;;;;;;;8.50;3.75;;;;;20.03;48.99;100503.28;146631;595;45020;-64
2023/12/02 12:39:03;;;;;;;;;16.00;13.75;;;;;19.97;50.23;100530.47;146617;613;47012;-64
2023/12/02 12:42:10;;;;;;;;;16.75;13.00;;;;;19.84;52.16;100547.88;146622;602;46020;-65
2023/12/02 12:45:10;;;;;;;;;23.00;19.00;;;;;19.66;53.90;100507.31;146617;628;46016;-65
2023/12/02 12:48:04;;;;;;;;;17.25;15.25;;;;;19.47;53.14;100507.09;146620;619;46010;-63
2023/12/02 12:51:21;;;;;;;;;19.50;18.25;;;;;19.39;54.14;100527.16;146616;614;46016;-63
2023/12/02 12:54:36;;;;;;;;;44.25;34.75;;;;;19.29;55.21;100531.41;146621;636;46011;-63
2023/12/02 12:58:01;;;;;;;;;37.75;30.25;;;;;15.47;55.42;99856.34;146617;729;46014;-65
2023/12/02 13:01:08;;;;;;;;;32.00;28.75;;;;;19.17;55.88;100507.59;146622;584;46010;-65
2023/12/02 13:04:33;;;;;;;;;29.75;26.00;;;;;19.13;54.89;100517.19;146615;607;46016;-64
2023/12/02 13:07:38;;;;;;;;;22.25;20.25;;;;;19.11;54.94;100518.03;146621;571;46020;-64
2023/12/02 13:10:41;;;;;;;;;16.50;13.00;;;;;19.12;54.02;100520.66;146618;570;46016;-64
2023/12/02 13:13:42;;;;;;;;;15.50;14.00;;;;;19.19;52.95;100519.03;146621;602;47020;-64
2023/12/02 13:16:38;;;;;;;;;10.67;6.67;;;;;19.22;52.83;100518.16;146626;608;46016;-64
2023/12/02 13:19:32;;;;;;;;;6.67;6.33;;;;;19.26;52.64;100515.59;146624;622;46020;-64
2023/12/02 13:22:35;;;;;;;;;36.00;30.50;;;;;19.30;53.05;100517.41;146617;605;46016;-64
2023/12/02 13:25:37;;;;;;;;;28.50;24.50;;;;;19.33;53.99;100509.53;146613;604;46021;-64
2023/12/02 13:28:54;;;;;;;;;16.25;13.00;;;;;19.31;54.63;100503.38;146615;667;47016;-64
2023/12/02 13:31:56;;;;;;;;;15.00;11.50;;;;;19.24;53.42;100506.81;146620;682;46011;-66
2023/12/02 13:35:04;;;;;;;;;22.50;19.75;;;;;19.17;53.57;100515.47;146619;572;46016;-64
2023/12/02 13:38:25;;;;;;;;;25.00;20.25;;;;;19.15;53.79;100510.19;146616;566;46020;-63
2023/12/02 13:41:37;;;;;;;;;17.75;16.25;;;;;19.07;51.59;100487.31;146617;648;46019;-64
2023/12/02 13:44:43;;;;;;;;;11.75;10.00;;;;;19.17;51.00;100494.47;146621;652;46010;-65
2023/12/02 13:48:18;;;;;;;;;19.50;15.50;;;;;14.43;51.08;99676.94;146620;612;46012;-65
2023/12/02 13:51:26;;;;;;;;;14.50;13.25;;;;;19.26;49.61;100493.69;146622;586;46020;-65
2023/12/02 13:55:08;;;;;;;;;;;;;;;;;;;;;
2023/12/02 13:58:21;;;;;;;;;12.67;10.00;;;;;19.32;49.59;100489.38;146627;564;46010;-65
2023/12/02 14:01:38;;;;;;;;;7.33;6.00;;;;;15.67;49.98;99852.38;146621;583;46025;-66
2023/12/02 14:05:15;;;;;;;;;20.00;17.00;;;;;16.28;50.48;99953.59;146622;583;46020;-64
2023/12/02 14:08:24;;;;;;;;;11.00;9.00;;;;;19.32;51.82;100473.63;146614;597;46918;-63
2023/12/02 14:12:10;;;;;;;;;14.75;11.50;;;;;19.27;53.15;100480.56;146620;563;47010;-63
2023/12/02 14:15:53;;;;;;;;;14.25;13.75;;;;;15.08;55.27;99793.81;146616;578;47015;-62